Time;durP1;ratioP1;P1;durP2;ratioP2;P2;SDS_P1;SDS_P2;PMS_P1;PMS_P2;Temp;Humidity;BMP_temperature;BMP_pressure;BME280_temperature;BME280_humidity;BME280_pressure;Samples;Min_cycle;Max_cycle;Signal;HPM_P1;HPM_P2
2022/10/10 00:01:58;;;;;;;;;;;8.00;99.90;;;;;;5087965;28;19924;-92
2022/10/10 00:04:24;;;;;;;;;;;8.00;99.90;;;;;;5090111;28;19969;-91
2022/10/10 00:06:49;;;;;;;;;;;8.00;99.90;;;;;;5107183;28;20087;-91
2022/10/10 00:09:15;;;;;;;;;;;7.90;99.90;;;;;;5089665;28;20359;-90
2022/10/10 00:11:40;;;;;;;;;;;7.90;99.90;;;;;;5070218;28;20341;-92
2022/10/10 00:14:06;;;;;;;;;;;7.90;99.90;;;;;;5107535;28;19924;-92
2022/10/10 00:16:32;;;;;;;;;;;7.90;99.90;;;;;;5121340;28;19935;-91
2022/10/10 00:18:57;;;;;;;;;;;7.90;99.90;;;;;;5105088;28;19924;-91
2022/10/10 00:21:23;;;;;;;;;;;7.90;99.90;;;;;;5089796;28;19928;-90
2022/10/10 00:23:49;;;;;;;;;;;7.90;99.90;;;;;;5092943;28;19924;-91
2022/10/10 00:26:14;;;;;;;;;;;7.80;99.90;;;;;;5085678;28;19950;-91
2022/10/10 00:28:40;;;;;;;;;;;7.80;99.90;;;;;;5085141;28;19924;-92
2022/10/10 00:31:07;;;;;;;;;;;7.80;99.90;;;;;;5068800;28;19924;-92
2022/10/10 00:33:33;;;;;;;;;;;7.80;99.90;;;;;;5103755;28;19924;-92
2022/10/10 00:35:59;;;;;;;;;;;7.70;99.90;;;;;;5089006;28;19924;-92
2022/10/10 00:38:24;;;;;;;;;;;7.80;99.90;;;;;;5103497;28;19931;-92
2022/10/10 00:40:53;;;;;;;;;;;7.70;99.90;;;;;;5088806;28;19924;-91
2022/10/10 00:43:19;;;;;;;;;;;7.70;99.90;;;;;;5105853;28;19970;-91
2022/10/10 00:45:46;;;;;;;;;;;7.70;99.90;;;;;;5104713;28;20031;-91
2022/10/10 00:48:17;;;;;;;;;;;7.60;99.90;;;;;;5088825;28;19954;-91
2022/10/10 00:51:01;;;;;;;;;;;7.60;99.90;;;;;;5100321;28;19934;-92
2022/10/10 00:53:30;;;;;;;;;;;7.60;99.90;;;;;;5127867;28;19919;-92
2022/10/10 00:55:56;;;;;;;;;;;7.60;99.90;;;;;;5102085;28;19924;-92
2022/10/10 00:58:22;;;;;;;;;;;7.60;99.90;;;;;;5095198;28;19920;-93
2022/10/10 01:00:48;;;;;;;;;;;7.60;99.90;;;;;;5131351;28;19975;-92
2022/10/10 01:03:14;;;;;;;;;;;7.60;99.90;;;;;;5111726;28;19931;-93
2022/10/10 01:05:40;;;;;;;;;;;7.50;99.90;;;;;;5099516;28;19938;-92
2022/10/10 01:08:06;;;;;;;;;;;7.50;99.90;;;;;;5107097;28;19924;-93
2022/10/10 01:10:38;;;;;;;;;;;7.50;99.90;;;;;;5088692;28;19923;-92
2022/10/10 01:13:14;;;;;;;;;;;7.50;99.90;;;;;;5100549;28;19947;-92
2022/10/10 01:15:43;;;;;;;;;;;7.50;99.90;;;;;;5102286;28;20381;-92
2022/10/10 01:18:18;;;;;;;;;;;7.50;99.90;;;;;;5104951;28;20031;-92
2022/10/10 01:21:08;;;;;;;;;;;7.50;99.90;;;;;;5102481;28;19924;-93
2022/10/10 01:23:40;;;;;;;;;;;7.40;99.90;;;;;;5090655;28;19962;-92
2022/10/10 01:26:08;;;;;;;;;;;7.60;99.90;;;;;;5103185;28;19930;-93
2022/10/10 01:28:48;;;;;;;;;;;7.40;99.90;;;;;;5099589;28;19995;-92
2022/10/10 01:31:15;;;;;;;;;;;7.40;99.90;;;;;;5089183;28;19923;-92
2022/10/10 01:34:01;;;;;;;;;;;7.40;99.90;;;;;;5094371;28;19923;-91
2022/10/10 01:36:37;;;;;;;;;;;7.40;99.90;;;;;;5101837;28;20081;-91
2022/10/10 01:39:08;;;;;;;;;;;7.40;99.90;;;;;;5100758;28;19945;-92
2022/10/10 01:41:37;;;;;;;;;;;7.40;99.90;;;;;;5102686;28;19995;-92
2022/10/10 01:44:03;;;;;;;;;;;7.30;99.90;;;;;;5104724;28;20073;-91
2022/10/10 01:46:30;;;;;;;;;;;7.30;99.90;;;;;;5084144;28;19924;-92
2022/10/10 01:48:56;;;;;;;;;;;7.30;99.90;;;;;;5104764;28;19945;-92
2022/10/10 01:51:22;;;;;;;;;;;7.30;99.90;;;;;;5101516;28;20085;-90
2022/10/10 01:54:11;;;;;;;;;;;7.20;99.90;;;;;;5103981;28;20004;-91
2022/10/10 01:56:46;;;;;;;;;;;7.20;99.90;;;;;;5110799;28;19973;-92
2022/10/10 01:59:33;;;;;;;;;;;7.20;99.90;;;;;;5095700;28;20363;-91
2022/10/10 02:02:11;;;;;;;;;;;7.20;99.90;;;;;;5103904;28;19924;-92
2022/10/10 02:04:57;;;;;;;;;;;7.20;99.90;;;;;;5108080;28;19924;-91
2022/10/10 02:07:30;;;;;;;;;;;7.20;99.90;;;;;;5101931;28;20371;-91
2022/10/10 02:09:57;;;;;;;;;;;7.40;99.90;;;;;;5103855;28;20526;-92
2022/10/10 02:12:23;;;;;;;;;;;6.80;99.90;;;;;;5102183;28;20346;-91
2022/10/10 02:14:51;;;;;;;;;;;7.10;99.90;;;;;;5085367;28;19923;-91
2022/10/10 02:17:16;;;;;;;;;;;7.10;99.90;;;;;;5102016;28;20333;-90
2022/10/10 02:19:50;;;;;;;;;;;7.10;99.90;;;;;;5103691;28;19923;-91
2022/10/10 02:22:17;;;;;;;;;;;7.10;99.90;;;;;;5103580;28;19924;-91
2022/10/10 02:24:43;;;;;;;;;;;7.10;99.90;;;;;;5092243;28;20391;-92
2022/10/10 02:27:15;;;;;;;;;;;7.10;99.90;;;;;;5083777;28;19924;-93
2022/10/10 02:29:42;;;;;;;;;;;7.10;99.90;;;;;;5100951;28;19924;-92
2022/10/10 02:32:20;;;;;;;;;;;7.10;99.90;;;;;;5101914;28;20402;-91
2022/10/10 02:34:49;;;;;;;;;;;7.10;99.90;;;;;;5096425;28;19931;-92
2022/10/10 02:37:15;;;;;;;;;;;7.00;99.90;;;;;;5095836;28;19928;-90
2022/10/10 02:39:49;;;;;;;;;;;7.00;99.90;;;;;;5103528;28;19930;-91
2022/10/10 02:42:16;;;;;;;;;;;7.00;99.90;;;;;;5100387;28;19958;-92
2022/10/10 02:44:42;;;;;;;;;;;7.00;99.90;;;;;;5104084;28;19931;-92
2022/10/10 02:47:08;;;;;;;;;;;7.00;99.90;;;;;;5100856;28;20017;-90
2022/10/10 02:49:34;;;;;;;;;;;7.00;99.90;;;;;;5078257;28;20435;-91
2022/10/10 02:52:00;;;;;;;;;;;7.00;99.90;;;;;;5090029;28;20485;-92
2022/10/10 02:54:26;;;;;;;;;;;7.00;99.90;;;;;;5101792;28;19924;-93
2022/10/10 02:56:52;;;;;;;;;;;7.00;99.90;;;;;;5093037;28;19955;-91
2022/10/10 02:59:18;;;;;;;;;;;7.00;99.90;;;;;;5101795;28;19924;-92
2022/10/10 03:01:44;;;;;;;;;;;7.00;99.90;;;;;;5096649;28;19924;-91
2022/10/10 03:04:10;;;;;;;;;;;7.00;99.90;;;;;;5106167;28;19931;-91
2022/10/10 03:06:35;;;;;;;;;;;7.00;99.90;;;;;;5086890;28;19924;-92
2022/10/10 03:09:02;;;;;;;;;;;7.00;99.90;;;;;;5100320;28;19924;-91
2022/10/10 03:11:27;;;;;;;;;;;7.00;99.90;;;;;;5089665;28;19924;-91
2022/10/10 03:13:53;;;;;;;;;;;7.00;99.90;;;;;;5091984;28;19931;-91
2022/10/10 03:16:19;;;;;;;;;;;7.00;99.90;;;;;;5087486;28;19924;-93
2022/10/10 03:18:44;;;;;;;;;;;7.00;99.90;;;;;;5107429;28;19927;-90
2022/10/10 03:21:10;;;;;;;;;;;7.00;99.90;;;;;;5088390;28;20007;-91
2022/10/10 03:23:36;;;;;;;;;;;7.00;99.90;;;;;;5090212;28;20026;-91
2022/10/10 03:26:01;;;;;;;;;;;7.00;99.90;;;;;;5105699;28;19931;-91
2022/10/10 03:28:27;;;;;;;;;;;7.10;99.90;;;;;;5082055;28;20004;-91
2022/10/10 03:30:53;;;;;;;;;;;7.00;99.90;;;;;;5085364;28;19939;-91
2022/10/10 03:33:18;;;;;;;;;;;7.00;99.90;;;;;;5088172;28;19994;-92
2022/10/10 03:35:44;;;;;;;;;;;7.10;99.90;;;;;;5107219;28;19928;-92
2022/10/10 03:38:11;;;;;;;;;;;7.00;99.90;;;;;;5086688;28;19924;-92
2022/10/10 03:40:40;;;;;;;;;;;7.00;99.90;;;;;;5106682;28;19947;-92
2022/10/10 03:43:06;;;;;;;;;;;7.00;99.90;;;;;;5122392;28;19924;-92
2022/10/10 03:45:32;;;;;;;;;;;7.00;99.90;;;;;;5088379;28;19924;-91
2022/10/10 03:47:58;;;;;;;;;;;7.00;99.90;;;;;;5089793;28;20417;-91
2022/10/10 03:50:23;;;;;;;;;;;7.00;99.90;;;;;;5087453;28;19954;-92
2022/10/10 03:52:49;;;;;;;;;;;7.00;99.90;;;;;;5105869;28;19943;-91
2022/10/10 03:55:15;;;;;;;;;;;7.00;99.90;;;;;;5087664;28;19927;-92
2022/10/10 03:57:40;;;;;;;;;;;7.00;99.90;;;;;;5089337;28;19923;-91
2022/10/10 04:00:06;;;;;;;;;;;7.00;99.90;;;;;;5088171;28;19923;-92
2022/10/10 04:02:32;;;;;;;;;;;6.90;99.90;;;;;;5114833;28;20406;-93
2022/10/10 04:04:57;;;;;;;;;;;6.90;99.90;;;;;;5085187;28;19924;-91
2022/10/10 04:07:23;;;;;;;;;;;6.90;99.90;;;;;;5087814;28;19949;-92
2022/10/10 04:09:49;;;;;;;;;;;6.90;99.90;;;;;;5077004;28;19962;-91
2022/10/10 04:12:14;;;;;;;;;;;6.80;99.90;;;;;;5081623;28;19927;-92
2022/10/10 04:14:40;;;;;;;;;;;6.80;99.90;;;;;;5106312;28;19931;-91
2022/10/10 04:17:05;;;;;;;;;;;6.80;99.90;;;;;;5081785;28;19924;-91
2022/10/10 04:19:31;;;;;;;;;;;6.80;99.90;;;;;;5104413;28;19927;-91
2022/10/10 04:21:57;;;;;;;;;;;6.80;99.90;;;;;;5087320;28;19923;-92
2022/10/10 04:24:22;;;;;;;;;;;6.80;99.90;;;;;;5083369;28;19924;-91
2022/10/10 04:26:48;;;;;;;;;;;6.70;99.90;;;;;;5105517;28;19924;-91
2022/10/10 04:29:13;;;;;;;;;;;6.70;99.90;;;;;;5084027;28;19955;-91
2022/10/10 04:31:39;;;;;;;;;;;6.70;99.90;;;;;;5105259;28;19995;-91
2022/10/10 04:34:05;;;;;;;;;;;6.70;99.90;;;;;;5082484;28;19981;-92
2022/10/10 04:36:30;;;;;;;;;;;6.70;99.90;;;;;;5082347;28;20082;-92
2022/10/10 04:38:56;;;;;;;;;;;6.60;99.90;;;;;;5084370;28;19954;-91
2022/10/10 04:41:22;;;;;;;;;;;6.60;99.90;;;;;;5085608;28;19931;-92
2022/10/10 04:43:47;;;;;;;;;;;6.60;99.90;;;;;;5105398;28;19949;-92
2022/10/10 04:46:13;;;;;;;;;;;6.60;99.90;;;;;;5102761;28;19924;-91
2022/10/10 04:48:38;;;;;;;;;;;6.60;99.90;;;;;;5087381;28;19935;-92
2022/10/10 04:51:04;;;;;;;;;;;6.60;99.90;;;;;;5083009;28;19928;-93
2022/10/10 04:53:30;;;;;;;;;;;6.60;99.90;;;;;;5083961;28;20282;-91
2022/10/10 04:55:55;;;;;;;;;;;6.50;99.90;;;;;;5103706;28;19930;-92
2022/10/10 04:58:21;;;;;;;;;;;6.50;99.90;;;;;;5104591;28;19935;-92
2022/10/10 05:00:53;;;;;;;;;;;6.50;99.90;;;;;;5103925;28;19963;-92
2022/10/10 05:03:20;;;;;;;;;;;6.40;99.90;;;;;;5103533;28;20370;-92
2022/10/10 05:05:45;;;;;;;;;;;6.40;99.90;;;;;;5088246;28;19945;-92
2022/10/10 05:08:11;;;;;;;;;;;6.40;99.90;;;;;;5086417;28;19923;-93
2022/10/10 05:10:38;;;;;;;;;;;6.40;99.90;;;;;;5085391;28;19939;-92
2022/10/10 05:13:04;;;;;;;;;;;6.40;99.90;;;;;;5100396;28;19928;-91
2022/10/10 05:15:30;;;;;;;;;;;6.30;99.90;;;;;;5090397;28;19924;-93
2022/10/10 05:17:55;;;;;;;;;;;6.40;99.90;;;;;;5096011;28;20050;-93
2022/10/10 05:20:21;;;;;;;;;;;6.40;99.90;;;;;;5077119;28;19927;-91
2022/10/10 05:22:46;;;;;;;;;;;6.40;99.90;;;;;;5103829;28;19997;-92
2022/10/10 05:25:12;;;;;;;;;;;6.30;99.90;;;;;;5072636;28;19935;-92
2022/10/10 05:27:38;;;;;;;;;;;6.30;99.90;;;;;;5068287;28;19923;-91
2022/10/10 05:30:04;;;;;;;;;;;6.30;99.90;;;;;;5086173;28;19942;-90
2022/10/10 05:32:29;;;;;;;;;;;6.30;99.90;;;;;;5082832;28;19930;-92
2022/10/10 05:34:55;;;;;;;;;;;6.30;99.90;;;;;;5087554;28;20267;-92
2022/10/10 05:37:20;;;;;;;;;;;6.30;99.90;;;;;;5100082;28;20282;-91
2022/10/10 05:39:47;;;;;;;;;;;6.30;99.90;;;;;;5086826;28;19923;-92
2022/10/10 05:42:13;;;;;;;;;;;6.30;99.90;;;;;;5081432;28;20000;-93
2022/10/10 05:44:39;;;;;;;;;;;6.30;99.90;;;;;;5086234;28;19924;-91
2022/10/10 05:47:04;;;;;;;;;;;6.30;99.90;;;;;;5091524;28;19995;-93
2022/10/10 05:49:30;;;;;;;;;;;6.30;99.90;;;;;;5080147;28;19924;-91
2022/10/10 05:52:08;;;;;;;;;;;6.30;99.90;;;;;;5072765;28;19924;-89
2022/10/10 05:54:33;;;;;;;;;;;6.20;99.90;;;;;;5089146;28;19924;-91
2022/10/10 05:56:59;;;;;;;;;;;6.20;99.90;;;;;;5086675;28;19968;-91
2022/10/10 05:59:25;;;;;;;;;;;6.30;99.90;;;;;;5085052;28;19932;-89
2022/10/10 06:01:50;;;;;;;;;;;6.20;99.90;;;;;;5098652;28;19977;-93
2022/10/10 06:04:16;;;;;;;;;;;6.20;99.90;;;;;;5102858;28;19990;-92
2022/10/10 06:06:41;;;;;;;;;;;6.20;99.90;;;;;;5087563;28;19988;-90
2022/10/10 06:09:08;;;;;;;;;;;6.30;99.90;;;;;;5102698;28;19932;-91
2022/10/10 06:11:34;;;;;;;;;;;6.20;99.90;;;;;;5085041;28;19930;-90
2022/10/10 06:14:00;;;;;;;;;;;6.20;99.90;;;;;;5103265;28;19923;-90
2022/10/10 06:16:26;;;;;;;;;;;6.20;99.90;;;;;;5101647;28;19923;-91
2022/10/10 06:18:52;;;;;;;;;;;6.20;99.90;;;;;;5077753;28;19979;-90
2022/10/10 06:21:18;;;;;;;;;;;6.30;99.90;;;;;;5076588;28;19924;-91
2022/10/10 06:23:44;;;;;;;;;;;6.30;99.90;;;;;;5104210;28;19924;-91
2022/10/10 06:26:09;;;;;;;;;;;6.30;99.90;;;;;;5099692;28;19924;-91
2022/10/10 06:28:35;;;;;;;;;;;6.30;99.90;;;;;;5108951;28;19979;-91
2022/10/10 06:31:02;;;;;;;;;;;6.30;99.90;;;;;;5101585;28;19935;-89
2022/10/10 06:33:28;;;;;;;;;;;6.40;99.90;;;;;;5101926;28;19923;-90
2022/10/10 06:35:54;;;;;;;;;;;6.40;99.90;;;;;;5100169;28;19932;-91
2022/10/10 06:38:19;;;;;;;;;;;6.40;99.90;;;;;;5095999;28;19962;-91
2022/10/10 06:40:45;;;;;;;;;;;6.40;99.90;;;;;;5103527;28;19982;-89
2022/10/10 06:43:11;;;;;;;;;;;6.50;99.90;;;;;;5092123;28;19969;-91
2022/10/10 06:45:38;;;;;;;;;;;6.50;99.90;;;;;;5099827;28;20320;-92
2022/10/10 06:48:04;;;;;;;;;;;6.50;99.90;;;;;;5096070;28;19924;-92
2022/10/10 06:50:29;;;;;;;;;;;6.60;99.90;;;;;;5102733;28;19931;-92
2022/10/10 06:52:55;;;;;;;;;;;6.60;99.90;;;;;;5087960;28;19924;-89
2022/10/10 06:55:20;;;;;;;;;;;6.70;99.90;;;;;;5076567;28;19924;-90
2022/10/10 06:57:46;;;;;;;;;;;6.70;99.90;;;;;;5099073;28;19924;-90
2022/10/10 07:00:12;;;;;;;;;;;6.80;99.90;;;;;;5097499;28;19924;-90
2022/10/10 07:02:39;;;;;;;;;;;6.90;99.90;;;;;;5081037;28;20034;-92
2022/10/10 07:05:15;;;;;;;;;;;6.90;99.90;;;;;;5102211;28;19983;-92
2022/10/10 07:07:41;;;;;;;;;;;7.00;99.90;;;;;;5102119;28;19931;-91
2022/10/10 07:10:07;;;;;;;;;;;7.10;99.90;;;;;;5079346;28;19928;-91
2022/10/10 07:12:33;;;;;;;;;;;7.10;99.90;;;;;;5101417;28;19955;-91
2022/10/10 07:14:59;;;;;;;;;;;7.20;99.90;;;;;;5103588;28;19923;-92
2022/10/10 07:17:24;;;;;;;;;;;7.30;99.90;;;;;;5080075;28;19967;-91
2022/10/10 07:19:50;;;;;;;;;;;7.30;99.90;;;;;;5080431;28;19924;-92
2022/10/10 07:22:15;;;;;;;;;;;7.40;99.90;;;;;;5097523;28;19972;-92
2022/10/10 07:24:41;;;;;;;;;;;7.50;99.90;;;;;;5102500;28;20000;-92
2022/10/10 07:27:07;;;;;;;;;;;7.60;99.90;;;;;;5086058;28;19992;-91
2022/10/10 07:29:33;;;;;;;;;;;7.60;99.90;;;;;;5085088;28;19924;-92
2022/10/10 07:31:58;;;;;;;;;;;7.70;99.90;;;;;;5101225;28;20048;-92
2022/10/10 07:34:24;;;;;;;;;;;7.80;99.90;;;;;;5101778;28;19927;-92
2022/10/10 07:36:50;;;;;;;;;;;7.80;99.90;;;;;;5072410;28;19924;-92
2022/10/10 07:39:19;;;;;;;;;;;7.80;99.90;;;;;;5076931;28;19934;-90
2022/10/10 07:41:45;;;;;;;;;;;7.90;99.90;;;;;;5095941;28;19928;-89
2022/10/10 07:44:11;;;;;;;;;;;7.90;99.90;;;;;;5082183;28;19943;-88
2022/10/10 07:46:37;;;;;;;;;;;7.90;99.90;;;;;;5094881;28;19924;-89
2022/10/10 07:49:02;;;;;;;;;;;8.00;99.90;;;;;;5082372;28;19971;-90
2022/10/10 07:51:28;;;;;;;;;;;8.00;99.90;;;;;;5099945;28;19924;-89
2022/10/10 07:53:53;;;;;;;;;;;8.10;99.90;;;;;;5091797;28;19927;-88
2022/10/10 07:56:19;;;;;;;;;;;8.10;99.90;;;;;;5104313;28;19997;-90
2022/10/10 07:58:45;;;;;;;;;;;8.20;99.90;;;;;;5085066;28;19950;-90
2022/10/10 08:01:11;;;;;;;;;;;8.30;99.90;;;;;;5091269;28;19930;-91
2022/10/10 08:03:37;;;;;;;;;;;8.40;99.90;;;;;;5081740;28;19924;-90
2022/10/10 08:06:04;;;;;;;;;;;8.50;99.90;;;;;;5104928;28;19924;-89
2022/10/10 08:08:30;;;;;;;;;;;8.60;99.90;;;;;;5099232;28;19945;-88
2022/10/10 08:10:57;;;;;;;;;;;8.70;99.90;;;;;;5101185;28;19963;-88
2022/10/10 08:13:23;;;;;;;;;;;8.70;99.90;;;;;;5098801;28;19924;-89
2022/10/10 08:15:49;;;;;;;;;;;7.40;99.90;;;;;;5093392;28;19928;-89
2022/10/10 08:18:15;;;;;;;;;;;8.90;99.90;;;;;;5085536;28;19950;-88
2022/10/10 08:20:41;;;;;;;;;;;9.00;99.90;;;;;;5103908;28;20039;-89
2022/10/10 08:23:06;;;;;;;;;;;9.10;99.90;;;;;;5102933;28;19970;-89
2022/10/10 08:25:32;;;;;;;;;;;9.20;99.90;;;;;;5086087;28;19924;-89
2022/10/10 08:27:58;;;;;;;;;;;9.30;99.90;;;;;;5100911;28;19924;-89
2022/10/10 08:30:23;;;;;;;;;;;9.40;99.90;;;;;;5086016;28;19927;-89
2022/10/10 08:32:49;;;;;;;;;;;9.50;99.90;;;;;;5083346;28;19924;-89
2022/10/10 08:35:15;;;;;;;;;;;9.70;99.90;;;;;;5102037;28;19991;-89
2022/10/10 08:37:40;;;;;;;;;;;9.80;99.90;;;;;;5084816;28;19924;-88
2022/10/10 08:40:06;;;;;;;;;;;9.90;99.90;;;;;;5086235;28;19959;-88
2022/10/10 08:42:42;;;;;;;;;;;10.00;99.90;;;;;;5082545;28;19923;-89
2022/10/10 08:45:10;;;;;;;;;;;10.20;99.90;;;;;;5097196;28;19924;-88
2022/10/10 08:47:35;;;;;;;;;;;10.30;99.90;;;;;;5096652;28;19963;-88
2022/10/10 08:50:05;;;;;;;;;;;10.40;99.90;;;;;;5101308;28;20489;-89
2022/10/10 08:52:34;;;;;;;;;;;10.50;99.90;;;;;;5118213;28;19930;-88
2022/10/10 08:55:01;;;;;;;;;;;10.60;99.90;;;;;;5117324;28;19924;-90
2022/10/10 08:57:46;;;;;;;;;;;10.70;99.90;;;;;;5101297;28;19979;-88
2022/10/10 09:00:14;;;;;;;;;;;10.80;99.90;;;;;;5100566;28;19928;-89
2022/10/10 09:02:43;;;;;;;;;;;10.90;99.90;;;;;;5100814;28;19938;-89
2022/10/10 09:05:19;;;;;;;;;;;10.90;99.90;;;;;;5100975;28;19945;-89
2022/10/10 09:07:44;;;;;;;;;;;11.00;99.90;;;;;;5101380;28;20014;-89
2022/10/10 09:10:13;;;;;;;;;;;11.00;99.90;;;;;;5102671;28;19982;-89
2022/10/10 09:13:11;;;;;;;;;;;11.00;99.90;;;;;;5101140;28;20011;-89
2022/10/10 09:15:44;;;;;;;;;;;11.10;99.90;;;;;;5089580;28;19987;-91
2022/10/10 09:18:36;;;;;;;;;;;11.20;99.90;;;;;;5095951;28;19966;-90
2022/10/10 09:21:09;;;;;;;;;;;11.30;99.90;;;;;;5101771;28;19999;-90
2022/10/10 09:23:55;;;;;;;;;;;11.40;99.90;;;;;;5101377;28;20388;-90
2022/10/10 09:26:23;;;;;;;;;;;11.40;99.90;;;;;;5092042;28;19924;-91
2022/10/10 09:29:13;;;;;;;;;;;11.50;99.90;;;;;;5102710;28;19967;-91
2022/10/10 09:31:59;;;;;;;;;;;11.60;99.90;;;;;;5101745;28;19996;-92
2022/10/10 09:34:40;;;;;;;;;;;11.70;99.90;;;;;;5107394;28;19928;-90
2022/10/10 09:37:14;;;;;;;;;;;12.50;99.90;;;;;;5103604;28;20056;-91
2022/10/10 09:39:43;;;;;;;;;;;11.70;99.90;;;;;;5104149;28;20322;-91
2022/10/10 09:42:10;;;;;;;;;;;11.70;99.90;;;;;;5103278;28;19939;-89
2022/10/10 09:44:37;;;;;;;;;;;11.70;99.90;;;;;;5101364;28;19951;-91
2022/10/10 09:47:02;;;;;;;;;;;11.70;99.90;;;;;;5101203;28;20121;-93
2022/10/10 09:49:28;;;;;;;;;;;11.70;99.90;;;;;;5104135;28;19928;-91
2022/10/10 09:51:54;;;;;;;;;;;11.80;99.90;;;;;;5085075;28;20008;-92
2022/10/10 09:54:20;;;;;;;;;;;11.90;99.90;;;;;;5084096;28;19935;-92
2022/10/10 09:56:56;;;;;;;;;;;11.90;99.90;;;;;;5079758;28;19924;-90
2022/10/10 09:59:44;;;;;;;;;;;11.90;99.90;;;;;;5115036;28;19938;-93
2022/10/10 10:02:12;;;;;;;;;;;12.00;99.90;;;;;;5102603;28;19938;-90
2022/10/10 10:04:38;;;;;;;;;;;12.20;99.90;;;;;;5096454;28;19979;-90
2022/10/10 10:07:24;;;;;;;;;;;12.20;99.90;;;;;;5102394;28;19928;-90
2022/10/10 10:09:52;;;;;;;;;;;12.30;99.90;;;;;;5098568;28;19991;-91
2022/10/10 10:12:26;;;;;;;;;;;12.40;99.90;;;;;;5095535;28;19924;-91
2022/10/10 10:14:56;;;;;;;;;;;12.40;99.90;;;;;;5103943;28;19924;-91
2022/10/10 10:17:22;;;;;;;;;;;12.50;99.90;;;;;;5101068;28;19923;-91
2022/10/10 10:19:48;;;;;;;;;;;12.70;99.90;;;;;;5103415;28;19924;-90
2022/10/10 10:22:22;;;;;;;;;;;12.80;99.90;;;;;;5078336;28;20330;-91
2022/10/10 10:24:48;;;;;;;;;;;13.00;99.90;;;;;;5096083;28;20030;-92
2022/10/10 10:27:18;;;;;;;;;;;13.30;99.90;;;;;;5099452;28;19951;-92
2022/10/10 10:29:45;;;;;;;;;;;13.50;99.90;;;;;;5102268;28;19945;-91
2022/10/10 10:32:23;;;;;;;;;;;13.70;99.90;;;;;;5102425;28;19923;-91
2022/10/10 10:35:07;;;;;;;;;;;13.80;99.90;;;;;;5097372;28;19987;-92
2022/10/10 10:37:36;;;;;;;;;;;13.90;99.90;;;;;;5101910;28;19976;-91
2022/10/10 10:40:03;;;;;;;;;;;13.90;99.90;;;;;;5101598;28;19993;-91
2022/10/10 10:42:35;;;;;;;;;;;14.00;99.90;;;;;;5102219;28;19931;-91
2022/10/10 10:45:13;;;;;;;;;;;14.10;99.90;;;;;;5103591;28;19934;-92
2022/10/10 10:47:57;;;;;;;;;;;14.20;99.90;;;;;;5101281;28;19934;-91
2022/10/10 10:50:23;;;;;;;;;;;14.30;99.90;;;;;;5103162;28;19945;-90
2022/10/10 10:53:09;;;;;;;;;;;14.50;99.90;;;;;;5103112;28;19991;-91
2022/10/10 10:55:38;;;;;;;;;;;14.60;99.90;;;;;;5107159;28;19927;-91
2022/10/10 10:58:06;;;;;;;;;;;14.60;99.90;;;;;;5103654;28;19983;-91
2022/10/10 11:00:35;;;;;;;;;;;14.50;99.90;;;;;;5092260;28;19924;-91
2022/10/10 11:03:19;;;;;;;;;;;14.50;99.90;;;;;;5102889;28;19924;-90
2022/10/10 11:05:48;;;;;;;;;;;14.60;99.90;;;;;;5101803;28;20383;-91
2022/10/10 11:08:20;;;;;;;;;;;14.60;99.90;;;;;;5093084;28;19924;-91
2022/10/10 11:11:01;;;;;;;;;;;14.70;99.90;;;;;;5103814;28;20003;-91
2022/10/10 11:13:56;;;;;;;;;;;14.60;99.90;;;;;;5107257;28;19967;-90
2022/10/10 11:16:24;;;;;;;;;;;14.50;99.90;;;;;;5082706;28;19955;-90
2022/10/10 11:18:50;;;;;;;;;;;14.40;99.90;;;;;;5103361;28;19938;-92
2022/10/10 11:21:17;;;;;;;;;;;14.30;99.90;;;;;;5101647;28;19927;-90
2022/10/10 11:23:55;;;;;;;;;;;14.20;99.90;;;;;;5107740;28;19923;-90
2022/10/10 11:26:26;;;;;;;;;;;14.10;99.90;;;;;;5100497;28;19944;-90
2022/10/10 11:28:52;;;;;;;;;;;14.00;99.90;;;;;;5101050;28;20346;-91
2022/10/10 11:31:29;;;;;;;;;;;13.90;99.90;;;;;;5095054;28;19984;-88
2022/10/10 11:33:59;;;;;;;;;;;13.70;99.90;;;;;;5096899;28;19928;-88
2022/10/10 11:36:28;;;;;;;;;;;13.60;99.90;;;;;;5119656;28;19928;-88
2022/10/10 11:39:09;;;;;;;;;;;13.50;99.90;;;;;;5104177;28;19975;-89
2022/10/10 11:41:40;;;;;;;;;;;13.50;99.90;;;;;;5103344;28;19953;-88
2022/10/10 11:44:24;;;;;;;;;;;13.40;99.90;;;;;;5110221;28;19977;-89
2022/10/10 11:46:55;;;;;;;;;;;13.30;99.90;;;;;;5099843;28;19930;-88
2022/10/10 11:49:23;;;;;;;;;;;13.20;99.90;;;;;;5092021;28;19924;-88
2022/10/10 11:51:54;;;;;;;;;;;13.20;99.90;;;;;;5102843;28;19924;-89
2022/10/10 11:54:29;;;;;;;;;;;13.10;99.90;;;;;;5099748;28;19974;-88
2022/10/10 11:56:58;;;;;;;;;;;13.10;99.90;;;;;;5104363;28;19927;-88
2022/10/10 11:59:33;;;;;;;;;;;13.20;99.90;;;;;;5101792;28;20108;-89
2022/10/10 12:01:59;;;;;;;;;;;13.20;99.90;;;;;;5100401;28;20252;-90
2022/10/10 12:04:33;;;;;;;;;;;13.30;99.90;;;;;;5083627;28;19934;-89
2022/10/10 12:07:02;;;;;;;;;;;13.30;99.90;;;;;;5098198;28;19931;-88
2022/10/10 12:09:30;;;;;;;;;;;13.40;99.90;;;;;;5103238;28;20274;-88
2022/10/10 12:11:57;;;;;;;;;;;13.40;99.90;;;;;;5101255;28;19960;-88
2022/10/10 12:14:25;;;;;;;;;;;13.40;99.90;;;;;;5103312;28;19924;-89
2022/10/10 12:16:50;;;;;;;;;;;13.40;99.90;;;;;;5111197;28;19934;-88
2022/10/10 12:19:17;;;;;;;;;;;13.40;99.90;;;;;;5088227;28;19923;-89
2022/10/10 12:21:52;;;;;;;;;;;13.40;99.90;;;;;;5100233;28;20011;-89
2022/10/10 12:24:18;;;;;;;;;;;13.40;99.90;;;;;;5106698;28;19932;-90
2022/10/10 12:26:53;;;;;;;;;;;13.40;99.90;;;;;;5100257;28;19930;-88
2022/10/10 12:29:37;;;;;;;;;;;13.40;99.90;;;;;;5103011;28;19931;-89
2022/10/10 12:32:12;;;;;;;;;;;13.40;99.90;;;;;;5101913;28;19923;-89
2022/10/10 12:34:42;;;;;;;;;;;13.40;99.90;;;;;;5118714;28;19971;-87
2022/10/10 12:37:21;;;;;;;;;;;13.40;99.90;;;;;;5096482;28;19924;-88
2022/10/10 12:40:05;;;;;;;;;;;13.40;99.90;;;;;;5096614;28;19946;-88
2022/10/10 12:42:32;;;;;;;;;;;13.40;99.90;;;;;;5097069;28;19932;-89
2022/10/10 12:44:58;;;;;;;;;;;13.30;99.90;;;;;;5095009;28;19939;-88
2022/10/10 12:47:29;;;;;;;;;;;13.30;99.90;;;;;;5093990;28;19924;-88
2022/10/10 12:49:57;;;;;;;;;;;13.20;99.90;;;;;;5098821;28;20022;-87
2022/10/10 12:52:26;;;;;;;;;;;13.20;99.90;;;;;;5119245;28;20005;-88
2022/10/10 12:54:53;;;;;;;;;;;13.10;99.90;;;;;;5102140;28;19939;-88
2022/10/10 12:57:24;;;;;;;;;;;13.10;99.90;;;;;;5091366;28;19953;-89
2022/10/10 12:59:50;;;;;;;;;;;13.10;99.90;;;;;;5102191;28;19923;-88
2022/10/10 13:02:19;;;;;;;;;;;13.10;99.90;;;;;;5083631;28;20024;-89
2022/10/10 13:04:45;;;;;;;;;;;13.10;99.90;;;;;;5101138;28;19928;-89
2022/10/10 13:07:16;;;;;;;;;;;13.00;99.90;;;;;;5087385;28;19979;-87
2022/10/10 13:09:43;;;;;;;;;;;13.00;99.90;;;;;;5112821;28;20011;-90
2022/10/10 13:12:28;;;;;;;;;;;13.00;99.90;;;;;;5090293;28;19945;-89
2022/10/10 13:14:54;;;;;;;;;;;14.50;99.90;;;;;;5094697;28;19935;-89
2022/10/10 13:17:20;;;;;;;;;;;13.00;99.90;;;;;;5099366;28;19935;-90
2022/10/10 13:19:46;;;;;;;;;;;12.90;99.90;;;;;;5103785;28;19955;-89
2022/10/10 13:22:11;;;;;;;;;;;12.90;99.90;;;;;;5100772;28;19930;-89
2022/10/10 13:24:38;;;;;;;;;;;12.90;99.90;;;;;;5078938;28;19946;-89
2022/10/10 13:27:03;;;;;;;;;;;12.80;99.90;;;;;;5088324;28;19924;-89
2022/10/10 13:29:34;;;;;;;;;;;12.80;99.90;;;;;;5085552;28;19976;-88
2022/10/10 13:32:07;;;;;;;;;;;12.80;99.90;;;;;;5100690;28;19923;-90
2022/10/10 13:34:35;;;;;;;;;;;12.80;99.90;;;;;;5102225;28;19942;-88
2022/10/10 13:37:01;;;;;;;;;;;12.80;99.90;;;;;;5103102;28;19927;-89
2022/10/10 13:39:28;;;;;;;;;;;12.80;99.90;;;;;;5102770;28;19924;-87
2022/10/10 13:41:54;;;;;;;;;;;12.80;99.90;;;;;;5103342;28;19945;-88
2022/10/10 13:44:21;;;;;;;;;;;12.70;99.90;;;;;;5085951;28;19930;-89
2022/10/10 13:46:47;;;;;;;;;;;12.70;99.90;;;;;;5100791;28;19923;-90
2022/10/10 13:49:23;;;;;;;;;;;12.70;99.90;;;;;;5120953;28;19976;-88
2022/10/10 13:51:58;;;;;;;;;;;12.70;99.90;;;;;;5100827;28;20006;-88
2022/10/10 13:54:53;;;;;;;;;;;12.60;99.90;;;;;;5100769;28;20056;-91
2022/10/10 13:57:22;;;;;;;;;;;12.60;99.90;;;;;;5120672;27;19931;-89
2022/10/10 13:59:56;;;;;;;;;;;12.50;99.90;;;;;;5101751;28;19924;-88
2022/10/10 14:02:28;;;;;;;;;;;12.40;99.90;;;;;;5102239;28;19995;-90
2022/10/10 14:04:53;;;;;;;;;;;12.30;99.90;;;;;;5100416;28;19930;-89
2022/10/10 14:07:21;;;;;;;;;;;12.30;99.90;;;;;;5103478;28;19924;-90
2022/10/10 14:09:58;;;;;;;;;;;12.20;99.90;;;;;;5102920;28;20377;-90
2022/10/10 14:12:29;;;;;;;;;;;12.20;99.90;;;;;;5119037;28;19924;-89
2022/10/10 14:14:56;;;;;;;;;;;12.10;99.90;;;;;;5093272;28;19927;-90
2022/10/10 14:17:22;;;;;;;;;;;12.10;99.90;;;;;;5100248;28;19948;-91
2022/10/10 14:19:48;;;;;;;;;;;12.10;99.90;;;;;;5087151;28;19973;-89
2022/10/10 14:22:14;;;;;;;;;;;12.10;99.90;;;;;;5101888;28;20012;-90
2022/10/10 14:24:40;;;;;;;;;;;12.00;99.90;;;;;;5118958;28;19923;-89
2022/10/10 14:27:14;;;;;;;;;;;12.00;99.90;;;;;;5097498;28;20445;-89
2022/10/10 14:29:40;;;;;;;;;;;12.00;99.90;;;;;;5089815;28;19936;-91
2022/10/10 14:32:07;;;;;;;;;;;12.00;99.90;;;;;;5114215;28;19928;-89
2022/10/10 14:34:33;;;;;;;;;;;12.00;99.90;;;;;;5116392;28;19930;-89